TAF Text Data
IDs:
Format:
Raw Decoded Include METAR

Data at: 2030 UTC 13 Aug 2020

METAR for:KRYW (Lago Vista/Allen Arp, TX, US)
Text:KRYW 132015Z AUTO 15004KT 10SM CLR 37/16 A2996 RMK AO2 T03740161
Temperature: 37.4°C ( 99°F)
Dewpoint: 16.1°C ( 61°F) [RH = 29%]
Pressure (altimeter):29.96 inches Hg (1014.6 mb)
Winds:from the SSE (150 degrees) at 5 MPH (4 knots; 2.1 m/s)
Visibility:10 or more sm (16+ km)
Ceiling:at least 12,000 feet AGL
Clouds:sky clear below 12,000 feet AGL
QC Flag:automated observation with no human augmentation

TAF for:KRYW (Lago Vista/Allen Arp, TX, US)
Text:No data found